Time;durP1;ratioP1;P1;durP2;ratioP2;P2;SDS_P1;SDS_P2;PMS_P1;PMS_P2;Temp;Humidity;BMP_temperature;BMP_pressure;BME280_temperature;BME280_humidity;BME280_pressure;Samples;Min_cycle;Max_cycle;Signal;HPM_P1;HPM_P2
2020/12/28 00:01:41;;;;;;;8.82;5.97;;;4.90;99.90;;;;;;5047048;28;20052;-67
2020/12/28 00:04:09;;;;;;;8.60;4.78;;;4.90;99.90;;;;;;5047168;28;20136;-67
2020/12/28 00:06:35;;;;;;;9.93;5.60;;;4.80;99.90;;;;;;5050964;28;20049;-67
2020/12/28 00:09:04;;;;;;;9.07;5.45;;;4.80;99.90;;;;;;5048524;28;20144;-67
2020/12/28 00:11:30;;;;;;;7.93;5.00;;;4.80;99.90;;;;;;5050359;28;20045;-67
2020/12/28 00:13:56;;;;;;;10.20;5.53;;;4.80;99.90;;;;;;5046385;28;20057;-67
2020/12/28 00:16:23;;;;;;;9.80;6.00;;;4.70;99.90;;;;;;5050330;28;20048;-67
2020/12/28 00:18:49;;;;;;;8.95;5.13;;;4.60;99.90;;;;;;5045971;28;20044;-67
2020/12/28 00:21:15;;;;;;;8.85;5.50;;;4.60;99.90;;;;;;5050397;28;20045;-67
2020/12/28 00:23:42;;;;;;;9.13;5.10;;;4.50;99.90;;;;;;5046977;28;20124;-67
2020/12/28 00:26:09;;;;;;;10.02;5.93;;;4.50;99.90;;;;;;5050125;28;20053;-67
2020/12/28 00:28:35;;;;;;;9.10;5.50;;;4.40;99.90;;;;;;5045574;28;20041;-67
2020/12/28 00:31:01;;;;;;;9.00;5.15;;;4.40;99.90;;;;;;5049854;28;20080;-67
2020/12/28 00:33:28;;;;;;;8.77;4.70;;;4.40;99.90;;;;;;5046376;28;20047;-67
2020/12/28 00:35:54;;;;;;;8.00;4.53;;;4.40;99.90;;;;;;5050945;28;20045;-67
2020/12/28 00:38:20;;;;;;;6.90;4.55;;;4.30;99.90;;;;;;5046481;28;20053;-67
2020/12/28 00:40:46;;;;;;;8.32;4.70;;;4.30;99.90;;;;;;5048784;28;20053;-67
2020/12/28 00:43:13;;;;;;;9.20;4.97;;;4.30;99.90;;;;;;5047198;28;20128;-67
2020/12/28 00:45:40;;;;;;;6.65;4.10;;;4.30;99.90;;;;;;5050683;28;20056;-67
2020/12/28 00:48:06;;;;;;;7.03;4.35;;;4.20;99.90;;;;;;5047423;28;20155;-67
2020/12/28 00:50:32;;;;;;;8.85;4.47;;;4.20;99.90;;;;;;5049337;28;20471;-67
2020/12/28 00:52:59;;;;;;;8.73;4.78;;;4.20;99.90;;;;;;5047384;28;20453;-67
2020/12/28 00:55:25;;;;;;;6.82;4.20;;;4.20;99.90;;;;;;5047601;28;20052;-67
2020/12/28 00:57:51;;;;;;;8.05;4.78;;;4.20;99.90;;;;;;5047635;28;20064;-67
2020/12/28 01:00:18;;;;;;;7.65;4.20;;;4.20;99.90;;;;;;5045739;28;20049;-67
2020/12/28 01:02:44;;;;;;;8.30;4.45;;;4.20;99.90;;;;;;5048187;28;20461;-67
2020/12/28 01:05:11;;;;;;;8.38;4.25;;;4.20;99.90;;;;;;5039586;28;20088;-67
2020/12/28 01:07:38;;;;;;;7.53;4.47;;;4.20;99.90;;;;;;5048725;28;20045;-67
2020/12/28 01:10:05;;;;;;;6.75;4.20;;;4.20;99.90;;;;;;5046615;28;20049;-67
2020/12/28 01:12:33;;;;;;;7.97;4.47;;;4.20;99.90;;;;;;5049744;28;20091;-67
2020/12/28 01:14:59;;;;;;;8.25;4.43;;;4.10;99.90;;;;;;5040629;28;20126;-67
2020/12/28 01:17:25;;;;;;;6.35;4.40;;;4.00;99.90;;;;;;5050208;28;20060;-67
2020/12/28 01:19:52;;;;;;;6.55;3.78;;;3.90;99.90;;;;;;5047665;28;20045;-67
2020/12/28 01:22:18;;;;;;;7.97;4.30;;;3.80;99.90;;;;;;5050181;28;20087;-67
2020/12/28 01:24:44;;;;;;;6.22;3.55;;;3.80;99.90;;;;;;5046605;28;20045;-67
2020/12/28 01:27:10;;;;;;;7.82;5.05;;;3.70;99.90;;;;;;5048911;28;20045;-67
2020/12/28 01:29:37;;;;;;;9.30;4.75;;;3.70;99.90;;;;;;5047448;28;20461;-67
2020/12/28 01:32:04;;;;;;;9.48;4.97;;;3.70;99.90;;;;;;5052771;28;20048;-67
2020/12/28 01:34:30;;;;;;;8.68;4.72;;;3.60;99.90;;;;;;5048150;28;20056;-67
2020/12/28 01:36:56;;;;;;;10.25;6.15;;;3.70;99.90;;;;;;5042118;28;20072;-67
2020/12/28 01:39:22;;;;;;;9.77;5.72;;;3.70;99.90;;;;;;5048661;28;20492;-67
2020/12/28 01:41:49;;;;;;;9.75;5.57;;;3.70;99.90;;;;;;5053778;28;20579;-67
2020/12/28 01:44:15;;;;;;;9.35;5.00;;;3.70;99.90;;;;;;5049416;28;20037;-67
2020/12/28 01:46:41;;;;;;;7.10;4.65;;;3.70;99.90;;;;;;5052628;28;20053;-67
2020/12/28 01:49:07;;;;;;;9.60;5.50;;;3.70;99.90;;;;;;5051107;28;20075;-67
2020/12/28 01:51:34;;;;;;;8.18;4.93;;;3.80;99.90;;;;;;5053064;28;20059;-67
2020/12/28 01:54:01;;;;;;;9.30;4.95;;;3.80;99.90;;;;;;5050955;28;20081;-67
2020/12/28 01:56:27;;;;;;;8.65;5.55;;;3.90;99.90;;;;;;5051945;28;20048;-67
2020/12/28 01:58:54;;;;;;;8.23;5.93;;;3.90;99.90;;;;;;5047055;28;21645;-67
2020/12/28 02:01:25;;;;;;;12.40;6.50;;;4.00;99.90;;;;;;5054214;28;20041;-65
2020/12/28 02:03:52;;;;;;;12.68;6.60;;;4.00;99.90;;;;;;5051149;28;20448;-67
2020/12/28 02:06:18;;;;;;;12.23;6.20;;;4.10;99.90;;;;;;5052526;28;20132;-65
2020/12/28 02:08:45;;;;;;;12.73;7.15;;;4.10;99.90;;;;;;5046974;28;20512;-65
2020/12/28 02:11:11;;;;;;;15.55;7.80;;;4.10;99.90;;;;;;5053347;28;20049;-65
2020/12/28 02:13:37;;;;;;;19.42;8.68;;;4.10;99.90;;;;;;5047118;28;20041;-65
2020/12/28 02:16:04;;;;;;;16.52;7.82;;;4.10;99.90;;;;;;5052426;28;20045;-65
2020/12/28 02:18:30;;;;;;;17.75;9.05;;;4.10;99.90;;;;;;5047329;28;20473;-65
2020/12/28 02:20:56;;;;;;;17.08;7.85;;;4.10;99.90;;;;;;5052120;28;20037;-65
2020/12/28 02:23:22;;;;;;;17.52;9.73;;;4.10;99.90;;;;;;5046909;28;20121;-65
2020/12/28 02:25:51;;;;;;;18.80;9.90;;;4.10;99.90;;;;;;5048310;28;20380;-65
2020/12/28 02:28:18;;;;;;;;;;;4.10;99.90;;;;;;5045562;28;20060;-65
2020/12/28 02:30:44;;;;;;;17.40;8.30;;;4.10;99.90;;;;;;5051552;28;19924;-65
2020/12/28 02:33:10;;;;;;;17.55;8.70;;;4.10;99.90;;;;;;5049551;28;20383;-65
2020/12/28 02:35:37;;;;;;;18.60;9.80;;;4.10;99.90;;;;;;5051527;28;20076;-65
2020/12/28 02:38:03;;;;;;;16.75;9.00;;;4.10;99.90;;;;;;5048155;28;20049;-65
2020/12/28 02:40:29;;;;;;;17.52;9.45;;;4.10;99.90;;;;;;5051118;28;20510;-65
2020/12/28 02:42:56;;;;;;;15.88;8.30;;;4.10;99.90;;;;;;5050111;28;20464;-65
2020/12/28 02:45:22;;;;;;;18.08;9.13;;;4.10;99.90;;;;;;5049596;28;20118;-65
2020/12/28 02:47:53;;;;;;;19.25;8.73;;;4.10;99.90;;;;;;5044565;28;20045;-65
2020/12/28 02:50:19;;;;;;;14.73;8.05;;;4.20;99.90;;;;;;5048010;28;20068;-65
2020/12/28 02:52:46;;;;;;;15.25;7.10;;;4.20;99.90;;;;;;5050161;28;20075;-65
2020/12/28 02:55:12;;;;;;;18.50;9.35;;;4.20;99.90;;;;;;5050722;28;20055;-66
2020/12/28 02:57:38;;;;;;;14.48;8.32;;;4.20;99.90;;;;;;5050662;28;20072;-65
2020/12/28 03:00:05;;;;;;;17.70;8.80;;;4.30;99.90;;;;;;5047223;28;20145;-65
2020/12/28 03:02:31;;;;;;;16.00;8.15;;;4.30;99.90;;;;;;5051635;28;20140;-65
2020/12/28 03:04:58;;;;;;;17.42;8.45;;;4.30;99.90;;;;;;5049747;28;20377;-65
2020/12/28 03:07:24;;;;;;;18.98;9.23;;;4.30;99.90;;;;;;5051919;28;20551;-65
2020/12/28 03:09:50;;;;;;;18.70;9.60;;;4.30;99.90;;;;;;5048093;28;20060;-65
2020/12/28 03:12:17;;;;;;;18.63;9.48;;;4.30;99.90;;;;;;5051464;28;20053;-65
2020/12/28 03:14:43;;;;;;;14.55;8.35;;;4.20;99.90;;;;;;5048295;28;20053;-65
2020/12/28 03:17:09;;;;;;;16.52;8.32;;;4.20;99.90;;;;;;5050854;28;20143;-65
2020/12/28 03:19:35;;;;;;;18.05;8.82;;;4.20;99.90;;;;;;5046276;28;20045;-65
2020/12/28 03:22:02;;;;;;;16.55;7.50;;;4.20;99.90;;;;;;5050657;28;20084;-65
2020/12/28 03:24:31;;;;;;;16.98;8.07;;;4.20;99.90;;;;;;5046726;28;20049;-65
2020/12/28 03:27:02;;;;;;;17.40;8.85;;;4.20;99.90;;;;;;5065980;28;20049;-65
2020/12/28 03:29:29;;;;;;;21.33;10.88;;;4.10;99.90;;;;;;5047267;28;20085;-65
2020/12/28 03:31:59;;;;;;;18.47;9.27;;;4.10;99.90;;;;;;5051629;28;20048;-65
2020/12/28 03:34:25;;;;;;;18.63;8.40;;;4.10;99.90;;;;;;5049002;28;20321;-65
2020/12/28 03:36:53;;;;;;;18.02;8.68;;;4.10;99.90;;;;;;5051269;28;20049;-65
2020/12/28 03:39:19;;;;;;;17.25;8.73;;;4.10;99.90;;;;;;5046182;28;20051;-65
2020/12/28 03:41:46;;;;;;;13.57;7.32;;;4.10;99.90;;;;;;5050669;28;20045;-65
2020/12/28 03:44:22;;;;;;;13.13;7.13;;;4.10;99.90;;;;;;5046539;28;20135;-65
2020/12/28 03:46:48;;;;;;;12.73;6.68;;;4.10;99.90;;;;;;5051031;28;20053;-65
2020/12/28 03:49:15;;;;;;;16.30;7.28;;;4.10;99.90;;;;;;5045432;28;20094;-65
2020/12/28 03:51:42;;;;;;;13.32;6.60;;;4.20;99.90;;;;;;5050755;28;20459;-65
2020/12/28 03:54:08;;;;;;;15.32;6.93;;;4.20;99.90;;;;;;5048764;28;20041;-65
2020/12/28 03:56:34;;;;;;;13.70;7.25;;;4.20;99.90;;;;;;5050962;28;20582;-65
2020/12/28 03:59:00;;;;;;;12.80;6.95;;;4.20;99.90;;;;;;5044628;28;20049;-65
2020/12/28 04:01:26;;;;;;;15.95;7.30;;;4.20;99.90;;;;;;5051063;28;20051;-65
2020/12/28 04:03:53;;;;;;;19.10;7.40;;;4.20;99.90;;;;;;5047667;28;20135;-65
2020/12/28 04:06:20;;;;;;;14.75;7.70;;;4.10;99.90;;;;;;5050584;28;20148;-65
2020/12/28 04:08:46;;;;;;;13.77;6.85;;;4.10;99.90;;;;;;5045126;28;20045;-65
2020/12/28 04:11:13;;;;;;;14.73;6.95;;;4.10;99.90;;;;;;5050283;28;20087;-65
2020/12/28 04:13:39;;;;;;;14.88;7.20;;;4.10;99.90;;;;;;5048083;28;20056;-65
2020/12/28 04:16:05;;;;;;;14.95;6.85;;;4.10;99.90;;;;;;5050205;28;20133;-65
2020/12/28 04:18:31;;;;;;;15.75;7.88;;;4.10;99.90;;;;;;5046880;28;20055;-65
2020/12/28 04:20:58;;;;;;;20.30;9.43;;;4.10;99.90;;;;;;5050313;28;20093;-65
2020/12/28 04:23:25;;;;;;;15.10;7.80;;;4.10;99.90;;;;;;5047468;28;20478;-65
2020/12/28 04:25:52;;;;;;;16.48;7.93;;;4.10;99.90;;;;;;5049881;28;20132;-65
2020/12/28 04:28:19;;;;;;;17.25;8.15;;;4.10;99.90;;;;;;5046361;28;20041;-65
2020/12/28 04:30:45;;;;;;;18.65;8.48;;;4.10;99.90;;;;;;5049946;28;20057;-65
2020/12/28 04:33:11;;;;;;;16.48;7.85;;;4.00;99.90;;;;;;5047269;28;20045;-65
2020/12/28 04:35:37;;;;;;;15.80;7.50;;;4.00;99.90;;;;;;5049999;28;20149;-65
2020/12/28 04:38:03;;;;;;;15.80;8.00;;;4.10;99.90;;;;;;5046016;28;20064;-65
2020/12/28 04:40:30;;;;;;;15.38;7.38;;;4.10;99.90;;;;;;5045619;28;20041;-65
2020/12/28 04:42:58;;;;;;;13.52;7.07;;;4.10;99.90;;;;;;5048559;28;20075;-65
2020/12/28 04:45:24;;;;;;;13.50;6.97;;;4.20;99.90;;;;;;5049427;28;20045;-65
2020/12/28 04:47:52;;;;;;;13.93;6.47;;;4.20;99.90;;;;;;5048138;28;20140;-65
2020/12/28 04:50:18;;;;;;;11.85;6.47;;;4.20;99.90;;;;;;5045419;28;20139;-65
2020/12/28 04:52:49;;;;;;;16.65;8.23;;;4.20;99.90;;;;;;5048694;28;20369;-65
2020/12/28 04:55:16;;;;;;;16.75;8.38;;;4.20;99.90;;;;;;5049932;28;20056;-65
2020/12/28 04:57:43;;;;;;;13.70;7.25;;;4.20;99.90;;;;;;5048565;28;20041;-65
2020/12/28 05:00:09;;;;;;;15.88;7.13;;;4.20;99.90;;;;;;5044680;28;20460;-65
2020/12/28 05:02:35;;;;;;;15.45;7.22;;;4.20;99.90;;;;;;5051102;28;20480;-67
2020/12/28 05:05:10;;;;;;;16.67;8.07;;;4.20;99.90;;;;;;5054625;28;20484;-66
2020/12/28 05:07:37;;;;;;;11.93;7.05;;;4.20;99.90;;;;;;5051267;28;20047;-65
2020/12/28 05:10:04;;;;;;;9.63;5.47;;;4.20;99.90;;;;;;5047862;28;20055;-67
2020/12/28 05:12:30;;;;;;;12.23;6.13;;;4.20;99.90;;;;;;5051959;28;20049;-65
2020/12/28 05:15:08;;;;;;;9.23;4.85;;;4.20;99.90;;;;;;5048576;28;20072;-67
2020/12/28 05:17:34;;;;;;;14.10;6.28;;;4.30;99.90;;;;;;5047763;28;20132;-67
2020/12/28 05:20:01;;;;;;;11.68;5.90;;;4.30;99.90;;;;;;5051250;28;20048;-67
2020/12/28 05:22:28;;;;;;;11.07;6.25;;;4.30;99.90;;;;;;5051852;28;20037;-67
2020/12/28 05:24:59;;;;;;;10.65;5.93;;;4.30;99.90;;;;;;5049706;28;20476;-67
2020/12/28 05:27:25;;;;;;;12.15;6.47;;;4.30;99.90;;;;;;5049308;28;20049;-67
2020/12/28 05:29:53;;;;;;;12.25;5.82;;;4.30;99.90;;;;;;5049232;28;20053;-67
2020/12/28 05:32:19;;;;;;;13.02;6.20;;;4.30;99.90;;;;;;5054503;28;20060;-67
2020/12/28 05:34:47;;;;;;;11.93;5.95;;;4.30;99.90;;;;;;5051097;28;20049;-66
2020/12/28 05:37:14;;;;;;;16.92;7.13;;;4.30;99.90;;;;;;5054344;28;20044;-67
2020/12/28 05:39:44;;;;;;;13.43;6.82;;;4.30;99.90;;;;;;5043748;28;20137;-67
2020/12/28 05:42:11;;;;;;;13.50;6.90;;;4.30;99.90;;;;;;5050085;28;20044;-67
2020/12/28 05:44:42;;;;;;;10.85;5.88;;;4.30;99.90;;;;;;5049689;28;20123;-67
2020/12/28 05:47:13;;;;;;;11.93;6.15;;;4.30;99.90;;;;;;5052514;28;20079;-67
2020/12/28 05:49:41;;;;;;;13.68;6.72;;;4.30;99.90;;;;;;5050415;28;20083;-67
2020/12/28 05:52:10;;;;;;;12.67;6.70;;;4.30;99.90;;;;;;5051886;28;20049;-67
2020/12/28 05:54:38;;;;;;;14.50;6.10;;;4.30;99.90;;;;;;5050061;28;20367;-67
2020/12/28 05:57:06;;;;;;;10.77;4.95;;;4.30;99.90;;;;;;5053683;28;20053;-67
2020/12/28 05:59:33;;;;;;;10.82;6.35;;;4.30;99.90;;;;;;5048068;28;20049;-67
2020/12/28 06:02:01;;;;;;;10.02;5.72;;;4.30;99.90;;;;;;5052902;28;20201;-67
2020/12/28 06:04:28;;;;;;;12.15;5.60;;;4.30;99.90;;;;;;5045874;28;20497;-67
2020/12/28 06:07:04;;;;;;;9.63;5.45;;;4.30;99.90;;;;;;5053467;28;20068;-67
2020/12/28 06:09:31;;;;;;;16.70;7.03;;;4.30;99.90;;;;;;5046991;28;20076;-66
2020/12/28 06:12:07;;;;;;;17.27;7.43;;;4.30;99.90;;;;;;5053762;28;20366;-67
2020/12/28 06:14:38;;;;;;;13.27;6.30;;;4.30;99.90;;;;;;5045487;28;20072;-66
2020/12/28 06:17:06;;;;;;;13.27;6.28;;;4.30;99.90;;;;;;5053555;28;20048;-67
2020/12/28 06:19:33;;;;;;;14.15;6.32;;;4.30;99.90;;;;;;5048653;28;20124;-67
2020/12/28 06:22:00;;;;;;;12.65;6.75;;;4.30;99.90;;;;;;5052828;28;20055;-67
2020/12/28 06:24:28;;;;;;;11.55;5.50;;;4.30;99.90;;;;;;5046691;28;20048;-66
2020/12/28 06:27:06;;;;;;;10.77;5.60;;;4.30;99.90;;;;;;5051791;28;20041;-66
2020/12/28 06:29:33;;;;;;;13.05;6.05;;;4.30;99.90;;;;;;5043319;28;20049;-66
2020/12/28 06:32:13;;;;;;;9.93;4.82;;;4.30;99.90;;;;;;5045444;28;20053;-67
2020/12/28 06:34:41;;;;;;;11.38;5.43;;;4.40;99.90;;;;;;5049674;28;20068;-67
2020/12/28 06:37:07;;;;;;;10.52;5.65;;;4.40;99.90;;;;;;5051839;28;20437;-67
2020/12/28 06:39:34;;;;;;;16.02;5.63;;;4.40;99.90;;;;;;5048062;28;20045;-67
2020/12/28 06:42:27;;;;;;;9.13;5.00;;;4.40;99.90;;;;;;5051710;28;20174;-67
2020/12/28 06:44:53;;;;;;;9.15;5.30;;;4.40;99.90;;;;;;5045828;28;20129;-67
2020/12/28 06:47:22;;;;;;;11.93;5.50;;;4.40;99.90;;;;;;5051635;28;20053;-67
2020/12/28 06:49:49;;;;;;;10.23;4.95;;;4.40;99.90;;;;;;5046022;28;20135;-67
2020/12/28 06:52:17;;;;;;;10.48;4.43;;;4.40;99.90;;;;;;5052000;28;20045;-67
2020/12/28 06:54:44;;;;;;;7.65;4.43;;;4.40;99.90;;;;;;5046867;28;20057;-67
2020/12/28 06:57:12;;;;;;;6.80;4.25;;;4.40;99.90;;;;;;5052545;28;20151;-67
2020/12/28 06:59:40;;;;;;;7.57;4.15;;;4.50;99.90;;;;;;5047077;28;20164;-67
2020/12/28 07:02:08;;;;;;;7.10;4.22;;;4.50;99.90;;;;;;5051860;28;20069;-67
2020/12/28 07:04:36;;;;;;;9.63;5.45;;;4.50;99.90;;;;;;5046121;28;20052;-67
2020/12/28 07:07:05;;;;;;;8.13;4.55;;;4.50;99.90;;;;;;5051577;28;20133;-67
2020/12/28 07:09:31;;;;;;;8.98;4.68;;;4.50;99.90;;;;;;5047571;28;20365;-67
2020/12/28 07:12:08;;;;;;;9.93;4.38;;;4.50;99.90;;;;;;5049578;28;20480;-67
2020/12/28 07:14:35;;;;;;;7.45;4.00;;;4.50;99.90;;;;;;5048082;28;20097;-67
2020/12/28 07:17:02;;;;;;;6.80;4.20;;;4.50;99.90;;;;;;5051187;28;20059;-67
2020/12/28 07:19:29;;;;;;;9.93;4.20;;;4.50;99.90;;;;;;5045114;28;20283;-67
2020/12/28 07:21:56;;;;;;;8.52;4.07;;;4.50;99.90;;;;;;5049712;28;20045;-67
2020/12/28 07:24:22;;;;;;;8.73;4.80;;;4.50;99.90;;;;;;5047964;28;20041;-67
2020/12/28 07:26:48;;;;;;;9.85;4.78;;;4.50;99.90;;;;;;5050231;28;20139;-67
2020/12/28 07:29:17;;;;;;;7.47;4.15;;;4.50;99.90;;;;;;5046393;28;20041;-67
2020/12/28 07:31:45;;;;;;;7.38;4.07;;;4.50;99.90;;;;;;5050769;28;20138;-67
2020/12/28 07:34:16;;;;;;;6.88;3.80;;;4.50;99.90;;;;;;5048579;28;20041;-67
2020/12/28 07:36:48;;;;;;;8.07;4.65;;;4.50;99.90;;;;;;5049711;28;20048;-67
2020/12/28 07:39:15;;;;;;;5.45;3.88;;;4.50;99.90;;;;;;5048504;28;20041;-67
2020/12/28 07:41:42;;;;;;;8.65;4.32;;;4.50;99.90;;;;;;5051325;28;20045;-67
2020/12/28 07:44:12;;;;;;;10.77;4.90;;;4.50;99.90;;;;;;5044474;28;20049;-67
2020/12/28 07:46:51;;;;;;;12.52;5.38;;;4.50;99.90;;;;;;5051117;28;20132;-67
2020/12/28 07:49:26;;;;;;;10.03;3.60;;;4.50;99.90;;;;;;5039231;28;20045;-67
2020/12/28 07:52:15;;;;;;;7.70;3.88;;;4.50;99.90;;;;;;5050789;28;20053;-67
2020/12/28 07:55:04;;;;;;;6.13;3.75;;;4.50;99.90;;;;;;5047394;28;20159;-67
2020/12/28 07:58:02;;;;;;;7.50;4.28;;;4.50;99.90;;;;;;5050665;28;20131;-67
2020/12/28 08:00:35;;;;;;;8.18;4.32;;;4.50;99.90;;;;;;5048704;28;20111;-67
2020/12/28 08:03:10;;;;;;;6.93;3.88;;;4.50;99.90;;;;;;5045616;28;20179;-67
2020/12/28 08:05:36;;;;;;;9.40;4.68;;;4.50;99.90;;;;;;5050379;28;20049;-67
2020/12/28 08:08:03;;;;;;;6.43;3.72;;;4.50;99.90;;;;;;5038782;28;20046;-67
2020/12/28 08:10:30;;;;;;;9.63;4.68;;;4.50;99.90;;;;;;5049621;28;20136;-67
2020/12/28 08:12:59;;;;;;;8.57;4.50;;;4.50;99.90;;;;;;5030812;28;20065;-67
2020/12/28 08:15:36;;;;;;;9.18;4.35;;;4.40;99.90;;;;;;5031561;28;20083;-66
2020/12/28 08:18:07;;;;;;;9.00;4.00;;;4.40;99.90;;;;;;5034321;28;20053;-67
2020/12/28 08:20:36;;;;;;;8.32;4.57;;;4.50;99.90;;;;;;5035901;28;20051;-67
2020/12/28 08:23:02;;;;;;;5.80;3.75;;;4.40;99.90;;;;;;5033263;28;20068;-67
2020/12/28 08:25:30;;;;;;;6.15;3.83;;;4.40;99.90;;;;;;5034761;28;20145;-66
2020/12/28 08:27:59;;;;;;;8.40;4.60;;;4.40;99.90;;;;;;5036794;28;20053;-66
2020/12/28 08:30:27;;;;;;;6.40;3.60;;;4.50;99.90;;;;;;5040429;28;20127;-66
2020/12/28 08:32:56;;;;;;;6.35;3.50;;;4.50;99.90;;;;;;5037165;28;20072;-66
2020/12/28 08:35:23;;;;;;;8.00;2.97;;;4.50;99.90;;;;;;5041831;28;20045;-66
2020/12/28 08:37:51;;;;;;;10.00;4.25;;;4.50;99.90;;;;;;5047867;28;20127;-66
2020/12/28 08:40:20;;;;;;;8.88;3.88;;;4.50;99.90;;;;;;5052063;28;20077;-66
2020/12/28 08:42:52;;;;;;;5.07;3.25;;;4.50;99.90;;;;;;5050457;28;20064;-67
2020/12/28 08:45:20;;;;;;;7.30;3.50;;;4.50;99.90;;;;;;5051093;28;20045;-67
2020/12/28 08:48:07;;;;;;;8.23;3.67;;;4.50;99.90;;;;;;5045548;28;20041;-67
2020/12/28 08:50:35;;;;;;;7.90;3.63;;;4.50;99.90;;;;;;5050555;28;20396;-67
2020/12/28 08:53:01;;;;;;;5.82;3.03;;;4.60;99.90;;;;;;5045806;28;20079;-67
2020/12/28 08:55:27;;;;;;;7.05;3.17;;;4.60;99.90;;;;;;5052453;28;20051;-67
2020/12/28 08:57:59;;;;;;;9.50;3.95;;;4.60;99.90;;;;;;5048444;28;20061;-67
2020/12/28 09:00:27;;;;;;;8.00;3.45;;;4.60;99.90;;;;;;5051779;28;20175;-67
2020/12/28 09:02:55;;;;;;;6.50;3.50;;;4.70;99.90;;;;;;5043751;28;20049;-67
2020/12/28 09:05:23;;;;;;;6.43;3.80;;;4.80;99.90;;;;;;5047127;28;20391;-67
2020/12/28 09:07:49;;;;;;;5.32;3.03;;;4.90;99.90;;;;;;5047041;28;20435;-66
2020/12/28 09:10:16;;;;;;;8.85;3.80;;;5.00;99.90;;;;;;5046015;28;20080;-66
2020/12/28 09:12:43;;;;;;;4.97;3.20;;;5.10;99.90;;;;;;5042542;28;20049;-67
2020/12/28 09:15:10;;;;;;;9.05;3.42;;;5.30;99.90;;;;;;5048337;28;20417;-66
2020/12/28 09:17:36;;;;;;;6.97;3.30;;;5.40;99.90;;;;;;5048110;28;20049;-66
2020/12/28 09:20:04;;;;;;;5.68;3.10;;;5.60;99.90;;;;;;5047523;28;20051;-67
2020/12/28 09:22:31;;;;;;;7.87;2.93;;;5.90;99.90;;;;;;5049139;28;20384;-67
2020/12/28 09:24:57;;;;;;;6.15;2.85;;;6.10;99.90;;;;;;5049648;28;20447;-67
2020/12/28 09:27:26;;;;;;;;;;;6.30;99.90;;;;;;5053510;28;20407;-67
2020/12/28 09:29:53;;;;;;;5.15;2.80;;;6.40;99.90;;;;;;5047540;28;19927;-66
2020/12/28 09:32:19;;;;;;;6.90;2.72;;;6.50;99.90;;;;;;5051923;28;20044;-67
2020/12/28 09:34:45;;;;;;;4.15;2.25;;;6.60;99.90;;;;;;5046228;28;20067;-67
2020/12/28 09:37:11;;;;;;;5.60;2.55;;;6.60;99.90;;;;;;5050794;28;20427;-67
2020/12/28 09:39:38;;;;;;;3.97;2.50;;;6.50;99.90;;;;;;5045654;28;20087;-66
2020/12/28 09:42:05;;;;;;;4.72;2.53;;;6.50;99.90;;;;;;5047790;28;20147;-67
2020/12/28 09:44:32;;;;;;;4.10;2.38;;;6.40;99.90;;;;;;5046716;28;20179;-67
2020/12/28 09:46:58;;;;;;;5.45;2.80;;;6.30;99.90;;;;;;5049722;28;20048;-67
2020/12/28 09:49:25;;;;;;;5.93;2.40;;;6.30;99.90;;;;;;5037703;28;20041;-67
2020/12/28 09:51:53;;;;;;;5.63;2.65;;;6.20;99.90;;;;;;5052739;28;20511;-67
2020/12/28 09:54:21;;;;;;;5.57;2.65;;;6.20;99.90;;;;;;5048722;28;20076;-67
2020/12/28 09:57:07;;;;;;;4.32;2.20;;;6.10;99.90;;;;;;5049512;28;20049;-67
2020/12/28 09:59:35;;;;;;;5.88;2.65;;;6.20;99.90;;;;;;5045694;28;20089;-67
2020/12/28 10:02:03;;;;;;;6.18;2.55;;;6.20;99.90;;;;;;5048065;28;20127;-67
2020/12/28 10:04:29;;;;;;;4.43;2.20;;;6.20;99.90;;;;;;5046715;28;20575;-67
2020/12/28 10:06:55;;;;;;;7.85;2.53;;;6.20;99.90;;;;;;5050357;28;20051;-67
2020/12/28 10:09:22;;;;;;;4.95;2.33;;;6.10;99.90;;;;;;5046202;28;20048;-66
2020/12/28 10:11:48;;;;;;;6.40;3.05;;;6.00;99.90;;;;;;5052818;28;20462;-66
2020/12/28 10:14:15;;;;;;;5.30;2.75;;;6.00;99.90;;;;;;5050039;28;20587;-66
2020/12/28 10:16:42;;;;;;;4.60;2.92;;;6.00;99.90;;;;;;5052395;28;20473;-66
2020/12/28 10:19:09;;;;;;;7.15;2.85;;;6.00;99.90;;;;;;5048328;28;20132;-66
2020/12/28 10:21:36;;;;;;;5.00;2.60;;;6.10;99.90;;;;;;5044174;28;20095;-66
2020/12/28 10:24:03;;;;;;;5.28;2.28;;;6.30;99.90;;;;;;5049766;28;20041;-66
2020/12/28 10:26:29;;;;;;;4.68;2.67;;;6.50;99.90;;;;;;5051210;28;20136;-66
2020/12/28 10:28:57;;;;;;;3.92;2.42;;;6.70;99.90;;;;;;5047856;28;20086;-66
2020/12/28 10:31:23;;;;;;;6.72;2.80;;;6.80;99.90;;;;;;5049571;28;20080;-66
2020/12/28 10:34:10;;;;;;;5.32;2.65;;;6.70;99.90;;;;;;5047629;28;20048;-66
2020/12/28 10:36:36;;;;;;;5.45;2.33;;;6.70;99.90;;;;;;5052144;28;20041;-66
2020/12/28 10:39:06;;;;;;;4.45;2.25;;;6.80;99.90;;;;;;5048906;28;20136;-67
2020/12/28 10:41:33;;;;;;;4.80;2.13;;;7.10;99.90;;;;;;5048477;28;21516;-67
2020/12/28 10:44:00;;;;;;;5.80;2.35;;;7.40;99.90;;;;;;5041288;28;20144;-67
2020/12/28 10:46:36;;;;;;;3.40;2.35;;;7.80;99.90;;;;;;5049959;28;20049;-67
2020/12/28 10:49:06;;;;;;;6.63;2.35;;;8.10;99.90;;;;;;5047430;28;20041;-67
2020/12/28 10:51:36;;;;;;;7.32;2.20;;;8.20;99.90;;;;;;5050168;28;20135;-67
2020/12/28 10:54:03;;;;;;;4.57;2.20;;;8.20;99.90;;;;;;5043932;28;20060;-67
2020/12/28 10:56:30;;;;;;;3.75;2.20;;;8.30;99.90;;;;;;5051429;28;20045;-67
2020/12/28 10:58:57;;;;;;;3.28;2.20;;;8.60;99.90;;;;;;5049317;28;20053;-68
2020/12/28 11:01:26;;;;;;;5.50;2.10;;;8.70;99.90;;;;;;5050030;28;20051;-67
2020/12/28 11:03:54;;;;;;;4.65;2.25;;;8.90;99.90;;;;;;5047241;28;20045;-67
2020/12/28 11:06:22;;;;;;;5.22;2.25;;;9.10;99.90;;;;;;5051727;28;20051;-67
2020/12/28 11:08:49;;;;;;;4.47;1.90;;;9.40;99.90;;;;;;5048359;28;20504;-67
2020/12/28 11:11:16;;;;;;;2.72;1.73;;;9.70;99.90;;;;;;5051954;28;20063;-67
2020/12/28 11:13:46;;;;;;;3.70;1.90;;;10.00;99.90;;;;;;5039502;28;20165;-67
2020/12/28 11:16:12;;;;;;;3.13;1.90;;;10.10;99.90;;;;;;5048830;28;20389;-67
2020/12/28 11:18:39;;;;;;;3.03;2.20;;;10.10;99.90;;;;;;5048760;28;20052;-67
2020/12/28 11:21:06;;;;;;;4.75;1.90;;;10.20;99.90;;;;;;5050523;28;20049;-67
2020/12/28 11:26:18;;;;;;;4.45;1.88;;;10.20;99.90;;;;;;5043400;28;20049;-65
2020/12/28 11:28:44;;;;;;;4.28;1.60;;;10.30;99.90;;;;;;5041463;28;20083;-65
2020/12/28 11:31:15;;;;;;;2.88;1.60;;;10.30;99.90;;;;;;5048558;28;20060;-65
2020/12/28 11:33:42;;;;;;;5.13;1.88;;;10.10;99.90;;;;;;5046332;28;20053;-65
2020/12/28 11:36:09;;;;;;;4.50;1.95;;;9.70;99.90;;;;;;5050407;28;20136;-65
2020/12/28 11:38:36;;;;;;;4.57;2.35;;;9.50;99.90;;;;;;5047067;28;20055;-65
2020/12/28 11:41:02;;;;;;;3.28;2.17;;;9.30;99.90;;;;;;5050041;28;20049;-65
2020/12/28 11:43:29;;;;;;;5.68;2.17;;;9.10;99.90;;;;;;5046654;28;20077;-66
2020/12/28 11:45:56;;;;;;;3.28;2.05;;;8.90;99.90;;;;;;5043012;28;20533;-65
2020/12/28 11:48:22;;;;;;;4.38;2.25;;;8.70;99.90;;;;;;5045622;28;20053;-65
2020/12/28 11:50:49;;;;;;;3.80;2.10;;;8.50;99.90;;;;;;5050204;28;20060;-65
2020/12/28 11:53:16;;;;;;;3.65;1.90;;;8.30;99.90;;;;;;5048334;28;20075;-65
2020/12/28 11:58:28;;;;;;;3.25;2.17;;;8.00;99.90;;;;;;5046131;28;20518;-65
2020/12/28 12:00:54;;;;;;;5.85;2.42;;;7.70;99.90;;;;;;5048878;28;20075;-65
2020/12/28 12:03:20;;;;;;;3.72;2.40;;;7.60;99.90;;;;;;5047210;28;20151;-65
2020/12/28 12:05:47;;;;;;;5.72;2.58;;;7.50;99.90;;;;;;5047672;28;21279;-65
2020/12/28 12:08:13;;;;;;;3.85;2.58;;;7.50;99.90;;;;;;5047588;28;20136;-65
2020/12/28 12:10:40;;;;;;;4.10;2.65;;;7.40;99.90;;;;;;5050774;28;20192;-65
2020/12/28 12:13:06;;;;;;;4.78;2.20;;;7.30;99.90;;;;;;5045880;28;20419;-65
2020/12/28 12:15:32;;;;;;;4.25;2.13;;;7.30;99.90;;;;;;5073146;28;20496;-65
2020/12/28 12:17:58;;;;;;;4.55;2.40;;;7.20;99.90;;;;;;5045036;28;20068;-65
2020/12/28 12:20:25;;;;;;;3.38;2.20;;;7.10;99.90;;;;;;5049011;28;20103;-65
2020/12/28 12:22:51;;;;;;;3.97;2.28;;;7.10;99.90;;;;;;5048446;28;20049;-65
2020/12/28 12:25:17;;;;;;;3.78;2.22;;;7.00;99.90;;;;;;5049607;28;20041;-66
2020/12/28 12:27:43;;;;;;;3.60;2.28;;;7.00;99.90;;;;;;5047760;28;20121;-65
2020/12/28 12:30:11;;;;;;;3.33;2.00;;;6.90;99.90;;;;;;5048212;28;20124;-65
2020/12/28 12:32:37;;;;;;;3.55;2.22;;;6.80;99.90;;;;;;5048061;28;20143;-65
2020/12/28 12:35:04;;;;;;;5.13;2.40;;;6.80;99.90;;;;;;5048826;28;20050;-65
2020/12/28 12:37:30;;;;;;;4.05;2.25;;;6.80;99.90;;;;;;5049554;28;20048;-65
2020/12/28 12:39:56;;;;;;;4.20;2.10;;;6.80;99.90;;;;;;5040202;28;20079;-65
2020/12/28 12:42:25;;;;;;;4.25;2.30;;;6.80;99.90;;;;;;5050609;28;20049;-65
2020/12/28 12:44:51;;;;;;;2.75;2.20;;;6.80;99.90;;;;;;5041243;28;20055;-65
2020/12/28 12:47:18;;;;;;;3.67;2.20;;;6.80;99.90;;;;;;5049659;28;20569;-65
2020/12/28 12:49:45;;;;;;;4.53;2.05;;;6.80;99.90;;;;;;5046144;28;20476;-65
2020/12/28 12:52:18;;;;;;;5.60;2.08;;;6.80;99.90;;;;;;5050138;28;20480;-65
2020/12/28 12:54:44;;;;;;;3.38;2.15;;;6.80;99.90;;;;;;5042566;28;20045;-65
2020/12/28 12:57:11;;;;;;;4.38;2.40;;;6.80;99.90;;;;;;5043876;28;20041;-65
2020/12/28 13:02:27;;;;;;;3.10;2.17;;;6.80;99.90;;;;;;5049558;28;20048;-65
2020/12/28 13:04:53;;;;;;;3.75;2.47;;;6.70;99.90;;;;;;5047328;28;20485;-65